• Join FlightAware (Why Join?)
  • Login
  • US Flag 
07:47PM EDT


 

Airport Tracker/Info


-or-


 

Live Flight TrackerFlight Track Log ✈ SWA868 ✈ 19-Apr-2013 ✈ KBWI - KBNA

Flight Track Log - Related Links

Times and Time Zones

All times are in EDT time to prevent confusion due to time zone crossing. See the SWA868 flight status page for this flight to view local times or setup timezone preferences in your user account.

Time Position Orientation Groundspeed Altitude Reporting Facility
EDT Latitude Longitude Course Direction KTS MPH feet Rate Location/Type
04:45PM 39.1167 -76.6167 218° Southwest 205 236 4,100  Level Potomac TRACON
04:46PM 39.1000 -76.6333 218° Southwest 199 229 6,900 1,980 Climbing Potomac TRACON
04:47PM 39.1667 -76.6833 330° Northwest 298 343 8,200 2,280 Climbing Potomac TRACON
04:48PM 39.1833 -76.7667 284° West 255 293 11,600 3,300 Climbing Potomac TRACON
04:49PM 39.2000 -76.8667 282° West 280 322 14,800 1,980 Climbing Potomac TRACON
04:51PM 39.1675 -77.0292 256° West 326 375 16,900 1,680 Climbing Washington Center
04:52PM 39.1369 -77.1436 251° West 336 387 19,300 2,220 Climbing Washington Center
04:53PM 39.1061 -77.2633 252° West 349 402 21,400 2,040 Climbing Washington Center
04:54PM 39.0731 -77.3908 252° West 361 415 23,400 2,280 Climbing Washington Center
04:55PM 39.0353 -77.5344 251° West 380 437 26,000 1,800 Climbing Washington Center
04:56PM 38.9997 -77.6669 251° West 391 450 27,000 840 Climbing Washington Center
04:57PM 38.9639 -77.7994 251° West 391 450 27,700 960 Climbing Washington Center
04:58PM 38.9281 -77.9397 252° West 405 466 29,000 1,680 Climbing Washington Center
04:59PM 38.8919 -78.0719 251° West 405 466 31,100 1,740 Climbing Washington Center
05:00PM 38.8581 -78.2042 252° West 399 459 32,600 1,740 Climbing Washington Center
05:01PM 38.8528 -78.3478 267° West 404 465 34,600 2,100 Climbing Washington Center
05:02PM 38.8514 -78.4892 269° West 404 465 36,900 1,680 Climbing Washington Center
05:03PM 38.8503 -78.6197 269° West 391 450 38,000 540 Climbing Washington Center
05:04PM 38.8489 -78.7503 269° West 378 435 38,000  Level Washington Center
05:05PM 38.8475 -78.8808 269° West 373 429 38,000  Level Washington Center
05:06PM 38.8461 -79.0114 269° West 368 423 38,000  Level Washington Center
05:07PM 38.8422 -79.1392 268° West 368 423 38,000  Level Washington Center
05:08PM 38.8303 -79.2667 263° West 363 418 38,000  Level Washington Center
05:09PM 38.8097 -79.3908 258° West 363 418 38,000  Level Washington Center
05:10PM 38.7847 -79.5147 256° West 363 418 38,000  Level Washington Center
05:11PM 38.7617 -79.6439 257° West 368 423 38,000  Level Washington Center
05:12PM 38.7325 -79.7647 253° West 368 423 38,000  Level Washington Center
05:13PM 38.6869 -79.9500 253° West 353 406 38,000  Level Indianapolis Center
05:14PM 38.6600 -80.0706 254° West 352 405 38,000  Level Indianapolis Center
05:15PM 38.6331 -80.1919 254° West 355 409 38,000  Level Indianapolis Center
05:16PM 38.6058 -80.3128 254° West 350 403 38,000  Level Indianapolis Center
05:17PM 38.5733 -80.4497 253° West 347 399 38,000  Level Indianapolis Center
05:18PM 38.5400 -80.5681 250° West 345 397 38,000  Level Indianapolis Center
05:19PM 38.5011 -80.6800 246° West 342 394 38,000  Level Indianapolis Center
05:21PM 38.4619 -80.7919 246° West 344 396 38,000  Level Indianapolis Center
05:22PM 38.4242 -80.9042 247° West 344 396 38,000  Level Indianapolis Center
05:23PM 38.3844 -81.0167 246° West 346 398 38,000  Level Indianapolis Center
05:24PM 38.3461 -81.1275 246° West 340 391 38,000  Level Indianapolis Center
05:25PM 38.3078 -81.2367 246° West 336 387 38,000  Level Indianapolis Center
05:26PM 38.2703 -81.3458 246° West 334 384 38,000  Level Indianapolis Center
05:27PM 38.2317 -81.4547 246° West 334 384 38,000  Level Indianapolis Center
05:28PM 38.1939 -81.5628 246° West 333 383 38,000  Level Indianapolis Center
05:29PM 38.1492 -81.6903 246° West 329 379 38,000  Level Indianapolis Center
05:30PM 38.1111 -81.7958 245° Southwest 327 376 38,000  Level Indianapolis Center
05:31PM 38.0736 -81.9014 246° West 326 375 38,000  Level Indianapolis Center
05:32PM 38.0361 -82.0069 246° West 326 375 38,000  Level Indianapolis Center
05:33PM 37.9975 -82.1131 245° Southwest 330 380 38,000  Level Indianapolis Center
05:34PM 37.9583 -82.2242 246° West 332 382 38,000  Level Indianapolis Center
05:35PM 37.9189 -82.3294 245° Southwest 331 381 38,000  Level Indianapolis Center
05:36PM 37.8811 -82.4372 246° West 335 386 38,000  Level Indianapolis Center
05:37PM 37.8350 -82.5625 245° Southwest 337 388 38,000  Level Indianapolis Center
05:38PM 37.7958 -82.6703 245° Southwest 337 388 38,000  Level Indianapolis Center
05:39PM 37.7556 -82.7789 245° Southwest 341 392 38,000  Level Indianapolis Center
05:40PM 37.7158 -82.8872 245° Southwest 341 392 38,000  Level Indianapolis Center
05:41PM 37.6764 -82.9944 245° Southwest 339 390 38,000 -180 Level Indianapolis Center
05:42PM 37.6375 -83.0994 245° Southwest 334 384 37,700 -720 Descending Indianapolis Center
05:43PM 37.5925 -83.2200 245° Southwest 327 376 36,600 -1,020 Descending Indianapolis Center
05:44PM 37.5544 -83.3231 245° Southwest 324 373 35,600 -1,020 Descending Indianapolis Center
05:45PM 37.5153 -83.4272 245° Southwest 329 379 34,600 -840 Descending Indianapolis Center
05:46PM 37.4761 -83.5336 245° Southwest 334 384 34,000 -600 Descending Indianapolis Center
05:48PM 37.3906 -83.7594 245° Southwest 330 380 32,900 -660 Descending Indianapolis Center
05:49PM 37.3503 -83.8622 244° Southwest 329 379 32,000 -480 Descending Indianapolis Center
05:50PM 37.3108 -83.9681 245° Southwest 333 383 32,000  Level Indianapolis Center
05:51PM 37.2708 -84.0708 244° Southwest 330 380 32,000  Level Indianapolis Center
05:52PM 37.2311 -84.1761 245° Southwest 333 383 32,000 -180 Level Indianapolis Center
05:53PM 37.1836 -84.2978 244° Southwest 333 383 31,700 -660 Descending Indianapolis Center
05:55PM 37.1414 -84.4039 243° Southwest 340 391 30,700 -1,020 Descending Indianapolis Center
05:56PM 37.1014 -84.5100 245° Southwest 339 390 29,700 -1,020 Descending Indianapolis Center
05:57PM 37.0617 -84.6150 245° Southwest 335 386 28,700 -1,020 Descending Indianapolis Center
05:58PM 37.0200 -84.7186 243° Southwest 328 377 27,700 -2,100 Descending Indianapolis Center
05:59PM 36.9797 -84.8242 244° Southwest 336 387 24,400 -2,100 Descending Indianapolis Center
06:00PM 36.9386 -84.9272 244° Southwest 334 384 23,400 -1,140 Descending Indianapolis Center
06:01PM 36.8908 -85.0464 243° Southwest 322 371 22,100 -720 Descending Indianapolis Center
06:02PM 36.8525 -85.1456 244° Southwest 319 367 22,000 -60 Descending Indianapolis Center
06:03PM 36.8125 -85.2450 243° Southwest 319 367 22,000  Level Indianapolis Center
06:04PM 36.7731 -85.3433 243° Southwest 320 368 22,000 -300 Level Indianapolis Center
06:05PM 36.7322 -85.4403 242° Southwest 316 364 21,500 -780 Descending Indianapolis Center
06:05PM 36.7075 -85.5017 243° Southwest 298 343 20,800 -1,140 Descending Memphis Center
06:06PM 36.6650 -85.5869 238° Southwest 288 331 19,800 -1,020 Descending Memphis Center
06:07PM 36.6242 -85.6619 236° Southwest 288 331 18,800 -1,260 Descending Memphis Center
06:08PM 36.5856 -85.7467 240° Southwest 288 331 17,300 -2,100 Descending Memphis Center
06:09PM 36.5394 -85.8500 241° Southwest 293 337 14,600 -2,400 Descending Memphis Center
06:10PM 36.5008 -85.9350 241° Southwest 302 348 12,600 -2,040 Descending Memphis Center
06:11PM 36.4581 -86.0222 239° Southwest 308 354 10,600 -1,320 Descending Memphis Center
06:12PM 36.4194 -86.1122 242° Southwest 301 346 10,000 -900 Descending Memphis Center
06:13PM 36.3992 -86.1931 253° West 268 308 8,800 -1,380 Descending Memphis Center
06:14PM 36.3811 -86.2739 255° West 256 295 7,300 -1,680 Descending Memphis Center
06:15PM 36.3608 -86.3547 253° West 251 289 5,500 -1,560 Descending Memphis Center
06:16PM 36.3367 -86.4436 251° West 251 289 4,200 -1,320 Descending Memphis Center
06:17PM 36.2925 -86.5050 228° Southwest 241 277 2,900 -900 Descending Memphis Center
06:18PM 36.2464 -86.5664 227° Southwest 246 283 2,500 -480 Descending Memphis Center
06:19PM 36.2042 -86.6172 224° Southwest 235 270 2,000 -600 Descending Memphis Center
06:20PM 36.1656 -86.6472 212° Southwest 188 216 1,300 -720 Descending Memphis Center
06:21PM 36.1325 -86.6589 196° South 153 176 600 -720 Descending Memphis Center